Список аэропортов
Фактическая погода:

18 октября, 10:30
Температура: +13°C (+11.7*)
Ветер: юго-западный 4 м/с
Давление: *767 мм
Без существ. явл.
Время (МСК)Темп. СВетерВлажностьДавлениеОблачностьОсадки
09:00+6Ю, 3 м/с99%1024 гПаоблачно
10:00+8Ю, 3 м/с95%1024 гПас прояснениями
11:00+10Ю, 3 м/с90%1024 гПаясно
12:00+12Ю, 4 м/с81%1023 гПаясно
13:00+14ЮЗ, 4 м/с71%1023 гПаясно
14:00+15ЮЗ, 4 м/с64%1022 гПаясно
15:00+16ЮЗ, 4 м/с62%1022 гПаясно
16:00+15Ю, 4 м/с63%1021 гПаясно
17:00+14Ю, 3 м/с69%1021 гПаясно
18:00+12Ю, 3 м/с79%1021 гПаясно
19:00+12Ю, 3 м/с84%1021 гПаясно
20:00+11Ю, 3 м/с90%1021 гПаясно
21:00+10ЮЗ, 3 м/с92%1021 гПаясно
22:00+10ЮЗ, 3 м/с92%1020 гПаясно
23:00+9Ю, 3 м/с94%1020 гПаясно
19 октября
00:00+9Ю, 3 м/с95%1019 гПаясно
01:00+8Ю, 2 м/с96%1019 гПаясно
02:00+8Ю, 3 м/с97%1019 гПаясно
03:00+7Ю, 2 м/с97%1019 гПамалооблачно
04:00+7Ю, 2 м/с98%1018 гПамалооблачно
05:00+7Ю, 3 м/с98%1018 гПамалооблачно
06:00+7Ю, 3 м/с98%1018 гПамалооблачно
07:00+6Ю, 3 м/с98%1017 гПамалооблачно
08:00+7Ю, 3 м/с98%1017 гПас прояснениями
09:00+8Ю, 3 м/с96%1016 гПас прояснениями
10:00+10ЮЗ, 3 м/с92%1016 гПас прояснениями
11:00+12ЮЗ, 3 м/с87%1016 гПас прояснениями
12:00+14ЮЗ, 3 м/с80%1015 гПаоблачно
13:00+15ЮЗ, 4 м/с73%1015 гПаоблачно
14:00+16З, 4 м/с66%1015 гПаоблачно
15:00+16З, 4 м/с64%1015 гПаоблачно
16:00+13СЗ, 5 м/с72%1016 гПас прояснениями
17:00+11СЗ, 5 м/с82%1016 гПаоблачно
18:00+11СЗ, 4 м/с87%1017 гПаоблачно
19:00+11СЗ, 4 м/с82%1017 гПаоблачно
20:00+10СЗ, 4 м/с78%1017 гПаоблачно
21:00+9СЗ, 5 м/с72%1018 гПамалооблачно
22:00+7СЗ, 3 м/с80%1018 гПамалооблачно
23:00+5З, 2 м/с90%1019 гПаясно
20 октября
00:00+5З, 3 м/с93%1019 гПаясно
01:00+4З, 3 м/с95%1019 гПаясно
02:00+3З, 2 м/с96%1019 гПаясно
03:00+2З, 2 м/с98%1019 гПаясно
04:00+2З, 2 м/с98%1020 гПамалооблачно
05:00+1З, 2 м/с98%1020 гПас прояснениями
06:00+1З, 3 м/с98%1020 гПас прояснениями
07:00+1З, 2 м/с98%1020 гПас прояснениями
08:000З, 3 м/с98%1020 гПас прояснениями
09:00+1З, 3 м/с97%1020 гПас прояснениями